sensor_id;sensor_type;location;lat;lon;timestamp;temperature;humidity
23813;DHT22;12087;45.190;5.688;2022-12-29T00:00:42;5.70;99.90
23813;DHT22;12087;45.190;5.688;2022-12-29T00:06:05;5.80;99.90
23813;DHT22;12087;45.190;5.688;2022-12-29T00:11:27;5.90;99.90
23813;DHT22;12087;45.190;5.688;2022-12-29T00:16:51;5.90;99.90
23813;DHT22;12087;45.190;5.688;2022-12-29T00:22:14;5.90;99.90
23813;DHT22;12087;45.190;5.688;2022-12-29T00:27:54;5.90;99.90
23813;DHT22;12087;45.190;5.688;2022-12-29T00:33:34;6.00;99.90
23813;DHT22;12087;45.190;5.688;2022-12-29T00:39:16;5.80;99.90
23813;DHT22;12087;45.190;5.688;2022-12-29T00:44:57;5.80;99.90
23813;DHT22;12087;45.190;5.688;2022-12-29T00:50:20;5.80;99.90
23813;DHT22;12087;45.190;5.688;2022-12-29T00:55:42;5.80;99.90
23813;DHT22;12087;45.190;5.688;2022-12-29T01:01:07;5.70;99.90
23813;DHT22;12087;45.190;5.688;2022-12-29T01:06:32;5.70;99.90
23813;DHT22;12087;45.190;5.688;2022-12-29T01:11:54;5.60;99.90
23813;DHT22;12087;45.190;5.688;2022-12-29T01:17:16;5.60;99.90
23813;DHT22;12087;45.190;5.688;2022-12-29T01:22:40;5.50;99.90
23813;DHT22;12087;45.190;5.688;2022-12-29T01:28:04;5.50;99.90
23813;DHT22;12087;45.190;5.688;2022-12-29T01:33:27;5.50;99.90
23813;DHT22;12087;45.190;5.688;2022-12-29T01:38:51;5.60;99.90
23813;DHT22;12087;45.190;5.688;2022-12-29T01:44:48;5.60;99.90
23813;DHT22;12087;45.190;5.688;2022-12-29T01:50:18;5.50;99.90
23813;DHT22;12087;45.190;5.688;2022-12-29T01:55:48;5.40;99.90
23813;DHT22;12087;45.190;5.688;2022-12-29T02:01:11;5.30;99.90
23813;DHT22;12087;45.190;5.688;2022-12-29T02:06:38;5.30;99.90
23813;DHT22;12087;45.190;5.688;2022-12-29T02:12:04;5.30;99.90
23813;DHT22;12087;45.190;5.688;2022-12-29T02:17:40;5.40;99.90
23813;DHT22;12087;45.190;5.688;2022-12-29T02:23:16;5.40;99.90
23813;DHT22;12087;45.190;5.688;2022-12-29T02:34:50;5.50;99.90
23813;DHT22;12087;45.190;5.688;2022-12-29T02:40:24;5.50;99.90
23813;DHT22;12087;45.190;5.688;2022-12-29T02:45:53;5.60;99.90
23813;DHT22;12087;45.190;5.688;2022-12-29T02:51:20;5.70;99.90
23813;DHT22;12087;45.190;5.688;2022-12-29T02:56:45;5.80;99.90
23813;DHT22;12087;45.190;5.688;2022-12-29T03:02:36;5.90;99.90
23813;DHT22;12087;45.190;5.688;2022-12-29T03:08:09;6.00;99.90
23813;DHT22;12087;45.190;5.688;2022-12-29T03:13:38;6.00;99.90
23813;DHT22;12087;45.190;5.688;2022-12-29T03:19:21;6.10;99.90
23813;DHT22;12087;45.190;5.688;2022-12-29T03:24:49;6.10;99.90
23813;DHT22;12087;45.190;5.688;2022-12-29T03:30:12;6.10;99.90
23813;DHT22;12087;45.190;5.688;2022-12-29T03:35:37;6.10;99.90
23813;DHT22;12087;45.190;5.688;2022-12-29T03:41:04;6.10;99.90
23813;DHT22;12087;45.190;5.688;2022-12-29T03:46:28;6.00;99.90
23813;DHT22;12087;45.190;5.688;2022-12-29T03:51:50;5.90;99.90
23813;DHT22;12087;45.190;5.688;2022-12-29T03:57:14;5.90;99.90
23813;DHT22;12087;45.190;5.688;2022-12-29T04:02:36;6.00;99.90
23813;DHT22;12087;45.190;5.688;2022-12-29T04:07:59;6.10;99.90
23813;DHT22;12087;45.190;5.688;2022-12-29T04:13:22;6.20;99.90
23813;DHT22;12087;45.190;5.688;2022-12-29T04:18:44;6.30;99.90
23813;DHT22;12087;45.190;5.688;2022-12-29T04:24:07;6.30;99.90
23813;DHT22;12087;45.190;5.688;2022-12-29T04:29:30;6.30;99.90
23813;DHT22;12087;45.190;5.688;2022-12-29T04:34:53;6.40;99.90
23813;DHT22;12087;45.190;5.688;2022-12-29T04:40:15;6.50;99.90
23813;DHT22;12087;45.190;5.688;2022-12-29T04:45:40;6.60;99.90
23813;DHT22;12087;45.190;5.688;2022-12-29T04:51:04;6.60;99.90
23813;DHT22;12087;45.190;5.688;2022-12-29T04:56:27;6.70;99.90
23813;DHT22;12087;45.190;5.688;2022-12-29T05:01:50;6.80;99.90
23813;DHT22;12087;45.190;5.688;2022-12-29T05:07:13;6.80;99.90
23813;DHT22;12087;45.190;5.688;2022-12-29T05:12:36;6.80;99.90
23813;DHT22;12087;45.190;5.688;2022-12-29T05:18:00;6.80;99.90
23813;DHT22;12087;45.190;5.688;2022-12-29T05:23:22;6.90;99.90
23813;DHT22;12087;45.190;5.688;2022-12-29T05:28:45;6.90;99.90
23813;DHT22;12087;45.190;5.688;2022-12-29T05:34:10;6.90;99.90
23813;DHT22;12087;45.190;5.688;2022-12-29T05:39:32;6.90;99.90
23813;DHT22;12087;45.190;5.688;2022-12-29T05:44:55;6.80;99.90
23813;DHT22;12087;45.190;5.688;2022-12-29T05:50:18;6.70;99.90
23813;DHT22;12087;45.190;5.688;2022-12-29T05:55:41;6.70;99.90
23813;DHT22;12087;45.190;5.688;2022-12-29T06:01:04;6.70;99.90
23813;DHT22;12087;45.190;5.688;2022-12-29T06:06:27;6.60;99.90
23813;DHT22;12087;45.190;5.688;2022-12-29T06:11:50;6.70;99.90
23813;DHT22;12087;45.190;5.688;2022-12-29T06:17:12;6.60;99.90
23813;DHT22;12087;45.190;5.688;2022-12-29T06:22:36;6.60;99.90
23813;DHT22;12087;45.190;5.688;2022-12-29T06:27:58;6.70;99.90
23813;DHT22;12087;45.190;5.688;2022-12-29T06:33:20;6.70;99.90
23813;DHT22;12087;45.190;5.688;2022-12-29T06:38:44;6.70;99.90
23813;DHT22;12087;45.190;5.688;2022-12-29T06:44:06;6.70;99.90
23813;DHT22;12087;45.190;5.688;2022-12-29T06:49:29;6.70;99.90
23813;DHT22;12087;45.190;5.688;2022-12-29T06:54:52;6.70;99.90
23813;DHT22;12087;45.190;5.688;2022-12-29T07:00:15;6.70;99.90
23813;DHT22;12087;45.190;5.688;2022-12-29T07:05:38;6.70;99.90
23813;DHT22;12087;45.190;5.688;2022-12-29T07:11:01;6.70;99.90
23813;DHT22;12087;45.190;5.688;2022-12-29T07:16:24;6.60;99.90
23813;DHT22;12087;45.190;5.688;2022-12-29T07:21:46;6.60;99.90
23813;DHT22;12087;45.190;5.688;2022-12-29T07:27:10;6.60;99.90
23813;DHT22;12087;45.190;5.688;2022-12-29T07:32:33;6.70;99.90
23813;DHT22;12087;45.190;5.688;2022-12-29T07:37:55;6.80;99.90
23813;DHT22;12087;45.190;5.688;2022-12-29T07:43:19;6.90;99.90
23813;DHT22;12087;45.190;5.688;2022-12-29T07:48:41;6.90;99.90
23813;DHT22;12087;45.190;5.688;2022-12-29T07:54:04;6.90;99.90
23813;DHT22;12087;45.190;5.688;2022-12-29T07:59:27;7.00;99.90
23813;DHT22;12087;45.190;5.688;2022-12-29T08:04:51;7.00;99.90
23813;DHT22;12087;45.190;5.688;2022-12-29T08:10:14;7.10;99.90
23813;DHT22;12087;45.190;5.688;2022-12-29T08:15:38;7.10;99.90
23813;DHT22;12087;45.190;5.688;2022-12-29T08:21:02;7.10;99.90
23813;DHT22;12087;45.190;5.688;2022-12-29T08:26:24;7.20;99.90
23813;DHT22;12087;45.190;5.688;2022-12-29T08:31:48;7.20;99.90
23813;DHT22;12087;45.190;5.688;2022-12-29T08:37:10;7.30;99.90
23813;DHT22;12087;45.190;5.688;2022-12-29T08:42:33;7.30;99.90
23813;DHT22;12087;45.190;5.688;2022-12-29T08:47:56;7.40;99.90
23813;DHT22;12087;45.190;5.688;2022-12-29T08:53:19;7.50;99.90
23813;DHT22;12087;45.190;5.688;2022-12-29T08:58:41;7.50;99.90
23813;DHT22;12087;45.190;5.688;2022-12-29T09:04:05;7.60;99.90
23813;DHT22;12087;45.190;5.688;2022-12-29T09:09:27;7.70;99.90
23813;DHT22;12087;45.190;5.688;2022-12-29T09:14:49;7.70;99.90
23813;DHT22;12087;45.190;5.688;2022-12-29T09:20:14;7.80;99.90
23813;DHT22;12087;45.190;5.688;2022-12-29T09:25:36;7.90;99.90
23813;DHT22;12087;45.190;5.688;2022-12-29T09:30:59;7.90;99.90
23813;DHT22;12087;45.190;5.688;2022-12-29T09:36:23;8.00;99.90
23813;DHT22;12087;45.190;5.688;2022-12-29T09:41:49;8.10;99.90
23813;DHT22;12087;45.190;5.688;2022-12-29T09:47:16;8.10;99.90
23813;DHT22;12087;45.190;5.688;2022-12-29T09:52:46;8.10;99.90
23813;DHT22;12087;45.190;5.688;2022-12-29T09:58:13;8.10;99.90
23813;DHT22;12087;45.190;5.688;2022-12-29T10:03:44;8.10;99.90
23813;DHT22;12087;45.190;5.688;2022-12-29T10:09:15;8.30;99.90
23813;DHT22;12087;45.190;5.688;2022-12-29T10:14:52;8.40;99.90
23813;DHT22;12087;45.190;5.688;2022-12-29T10:20:25;8.50;99.90
23813;DHT22;12087;45.190;5.688;2022-12-29T10:25:54;8.70;99.90
23813;DHT22;12087;45.190;5.688;2022-12-29T10:31:20;8.80;99.90
23813;DHT22;12087;45.190;5.688;2022-12-29T10:36:45;8.90;99.90
23813;DHT22;12087;45.190;5.688;2022-12-29T10:42:13;9.00;99.90
23813;DHT22;12087;45.190;5.688;2022-12-29T10:47:42;9.10;99.90
23813;DHT22;12087;45.190;5.688;2022-12-29T10:53:17;9.30;99.90
23813;DHT22;12087;45.190;5.688;2022-12-29T10:58:43;9.40;99.90
23813;DHT22;12087;45.190;5.688;2022-12-29T11:04:22;9.60;99.90
23813;DHT22;12087;45.190;5.688;2022-12-29T11:09:47;9.70;99.90
23813;DHT22;12087;45.190;5.688;2022-12-29T11:15:16;9.70;99.90
23813;DHT22;12087;45.190;5.688;2022-12-29T11:20:39;9.80;99.90
23813;DHT22;12087;45.190;5.688;2022-12-29T11:26:17;10.00;99.90
23813;DHT22;12087;45.190;5.688;2022-12-29T11:31:43;10.20;99.90
23813;DHT22;12087;45.190;5.688;2022-12-29T11:37:11;10.20;99.90
23813;DHT22;12087;45.190;5.688;2022-12-29T11:42:35;10.40;99.90
23813;DHT22;12087;45.190;5.688;2022-12-29T11:48:05;10.50;99.90
23813;DHT22;12087;45.190;5.688;2022-12-29T11:53:36;10.60;99.90
23813;DHT22;12087;45.190;5.688;2022-12-29T12:04:57;10.70;99.90
23813;DHT22;12087;45.190;5.688;2022-12-29T12:10:26;10.80;99.90
23813;DHT22;12087;45.190;5.688;2022-12-29T12:15:52;10.90;99.90
23813;DHT22;12087;45.190;5.688;2022-12-29T12:21:23;10.90;99.90
23813;DHT22;12087;45.190;5.688;2022-12-29T12:26:56;11.00;99.90
23813;DHT22;12087;45.190;5.688;2022-12-29T12:32:23;11.00;99.90
23813;DHT22;12087;45.190;5.688;2022-12-29T12:38:07;11.10;99.90
23813;DHT22;12087;45.190;5.688;2022-12-29T12:43:50;11.20;99.90
23813;DHT22;12087;45.190;5.688;2022-12-29T12:55:46;11.50;99.90
23813;DHT22;12087;45.190;5.688;2022-12-29T13:01:22;11.70;99.90
23813;DHT22;12087;45.190;5.688;2022-12-29T13:06:51;11.80;99.90
23813;DHT22;12087;45.190;5.688;2022-12-29T13:12:33;12.00;99.90
23813;DHT22;12087;45.190;5.688;2022-12-29T13:18:04;12.10;99.90
23813;DHT22;12087;45.190;5.688;2022-12-29T13:23:31;12.10;99.90
23813;DHT22;12087;45.190;5.688;2022-12-29T13:29:03;12.20;99.90
23813;DHT22;12087;45.190;5.688;2022-12-29T13:34:35;12.10;99.90
23813;DHT22;12087;45.190;5.688;2022-12-29T13:40:03;12.10;99.90
23813;DHT22;12087;45.190;5.688;2022-12-29T13:45:30;12.10;99.90
23813;DHT22;12087;45.190;5.688;2022-12-29T13:50:55;12.20;99.90
23813;DHT22;12087;45.190;5.688;2022-12-29T13:56:22;12.30;99.90
23813;DHT22;12087;45.190;5.688;2022-12-29T14:01:52;12.40;99.90
23813;DHT22;12087;45.190;5.688;2022-12-29T14:07:17;12.50;99.90
23813;DHT22;12087;45.190;5.688;2022-12-29T14:12:41;12.60;99.90
23813;DHT22;12087;45.190;5.688;2022-12-29T14:18:15;12.50;99.90
23813;DHT22;12087;45.190;5.688;2022-12-29T14:23:40;12.50;99.90
23813;DHT22;12087;45.190;5.688;2022-12-29T14:35:00;12.50;99.90
23813;DHT22;12087;45.190;5.688;2022-12-29T14:40:42;12.50;99.90
23813;DHT22;12087;45.190;5.688;2022-12-29T14:46:08;12.50;99.90
23813;DHT22;12087;45.190;5.688;2022-12-29T14:51:35;12.50;99.90
23813;DHT22;12087;45.190;5.688;2022-12-29T14:56:58;12.50;99.90
23813;DHT22;12087;45.190;5.688;2022-12-29T15:02:25;12.40;99.90
23813;DHT22;12087;45.190;5.688;2022-12-29T15:07:49;12.40;99.90
23813;DHT22;12087;45.190;5.688;2022-12-29T15:13:18;12.40;99.90
23813;DHT22;12087;45.190;5.688;2022-12-29T15:18:43;12.40;99.90
23813;DHT22;12087;45.190;5.688;2022-12-29T15:24:10;12.40;99.90
23813;DHT22;12087;45.190;5.688;2022-12-29T15:29:37;12.40;99.90
23813;DHT22;12087;45.190;5.688;2022-12-29T15:35:00;12.40;99.90
23813;DHT22;12087;45.190;5.688;2022-12-29T15:40:39;12.40;99.90
23813;DHT22;12087;45.190;5.688;2022-12-29T15:46:01;12.40;99.90
23813;DHT22;12087;45.190;5.688;2022-12-29T15:51:28;12.40;99.90
23813;DHT22;12087;45.190;5.688;2022-12-29T15:56:53;12.30;99.90
23813;DHT22;12087;45.190;5.688;2022-12-29T16:02:15;12.30;99.90
23813;DHT22;12087;45.190;5.688;2022-12-29T16:07:51;12.30;99.90
23813;DHT22;12087;45.190;5.688;2022-12-29T16:13:21;12.20;99.90
23813;DHT22;12087;45.190;5.688;2022-12-29T16:18:47;12.20;99.90
23813;DHT22;12087;45.190;5.688;2022-12-29T16:24:14;12.20;99.90
23813;DHT22;12087;45.190;5.688;2022-12-29T16:29:39;12.10;99.90
23813;DHT22;12087;45.190;5.688;2022-12-29T16:35:10;12.10;99.90
23813;DHT22;12087;45.190;5.688;2022-12-29T16:40:37;12.10;99.90
23813;DHT22;12087;45.190;5.688;2022-12-29T16:46:25;12.10;99.90
23813;DHT22;12087;45.190;5.688;2022-12-29T16:51:48;12.10;99.90
23813;DHT22;12087;45.190;5.688;2022-12-29T16:57:11;12.10;99.90
23813;DHT22;12087;45.190;5.688;2022-12-29T17:02:35;12.10;99.90
23813;DHT22;12087;45.190;5.688;2022-12-29T17:08:16;12.10;99.90
23813;DHT22;12087;45.190;5.688;2022-12-29T17:13:43;12.10;99.90
23813;DHT22;12087;45.190;5.688;2022-12-29T17:19:08;12.10;99.90
23813;DHT22;12087;45.190;5.688;2022-12-29T17:24:33;12.10;99.90
23813;DHT22;12087;45.190;5.688;2022-12-29T17:29:58;12.10;99.90
23813;DHT22;12087;45.190;5.688;2022-12-29T17:35:23;12.10;99.90
23813;DHT22;12087;45.190;5.688;2022-12-29T17:40:46;12.10;99.90
23813;DHT22;12087;45.190;5.688;2022-12-29T17:46:08;12.10;99.90
23813;DHT22;12087;45.190;5.688;2022-12-29T17:51:32;12.00;99.90
23813;DHT22;12087;45.190;5.688;2022-12-29T17:56:54;12.00;99.90
23813;DHT22;12087;45.190;5.688;2022-12-29T18:02:25;11.90;99.90
23813;DHT22;12087;45.190;5.688;2022-12-29T18:07:51;11.90;99.90
23813;DHT22;12087;45.190;5.688;2022-12-29T18:13:19;11.80;99.90
23813;DHT22;12087;45.190;5.688;2022-12-29T18:18:42;11.80;99.90
23813;DHT22;12087;45.190;5.688;2022-12-29T18:24:10;11.80;99.90
23813;DHT22;12087;45.190;5.688;2022-12-29T18:29:34;11.80;99.90
23813;DHT22;12087;45.190;5.688;2022-12-29T18:34:56;11.80;99.90
23813;DHT22;12087;45.190;5.688;2022-12-29T18:40:20;11.80;99.90
23813;DHT22;12087;45.190;5.688;2022-12-29T18:45:42;11.80;99.90
23813;DHT22;12087;45.190;5.688;2022-12-29T18:51:06;11.80;99.90
23813;DHT22;12087;45.190;5.688;2022-12-29T18:56:30;11.80;99.90
23813;DHT22;12087;45.190;5.688;2022-12-29T19:01:53;11.80;99.90
23813;DHT22;12087;45.190;5.688;2022-12-29T19:07:17;11.80;99.90
23813;DHT22;12087;45.190;5.688;2022-12-29T19:12:43;11.80;99.90
23813;DHT22;12087;45.190;5.688;2022-12-29T19:18:06;11.80;99.90
23813;DHT22;12087;45.190;5.688;2022-12-29T19:23:30;11.70;99.90
23813;DHT22;12087;45.190;5.688;2022-12-29T19:28:53;11.70;99.90
23813;DHT22;12087;45.190;5.688;2022-12-29T19:34:16;11.60;99.90
23813;DHT22;12087;45.190;5.688;2022-12-29T19:39:38;11.60;99.90
23813;DHT22;12087;45.190;5.688;2022-12-29T19:45:02;11.50;99.90
23813;DHT22;12087;45.190;5.688;2022-12-29T19:50:25;11.50;99.90
23813;DHT22;12087;45.190;5.688;2022-12-29T19:55:47;11.50;99.90
23813;DHT22;12087;45.190;5.688;2022-12-29T20:01:13;11.50;99.90
23813;DHT22;12087;45.190;5.688;2022-12-29T20:06:36;11.50;99.90
23813;DHT22;12087;45.190;5.688;2022-12-29T20:11:58;11.50;99.90
23813;DHT22;12087;45.190;5.688;2022-12-29T20:17:22;11.50;99.90
23813;DHT22;12087;45.190;5.688;2022-12-29T20:22:44;11.50;99.90
23813;DHT22;12087;45.190;5.688;2022-12-29T20:28:06;11.50;99.90
23813;DHT22;12087;45.190;5.688;2022-12-29T20:33:31;11.50;99.90
23813;DHT22;12087;45.190;5.688;2022-12-29T20:38:56;11.50;99.90
23813;DHT22;12087;45.190;5.688;2022-12-29T20:44:18;11.50;99.90
23813;DHT22;12087;45.190;5.688;2022-12-29T20:49:44;11.40;99.90
23813;DHT22;12087;45.190;5.688;2022-12-29T20:55:07;11.40;99.90
23813;DHT22;12087;45.190;5.688;2022-12-29T21:00:30;11.40;99.90
23813;DHT22;12087;45.190;5.688;2022-12-29T21:05:54;11.40;99.90
23813;DHT22;12087;45.190;5.688;2022-12-29T21:11:17;11.30;99.90
23813;DHT22;12087;45.190;5.688;2022-12-29T21:16:41;11.20;99.90
23813;DHT22;12087;45.190;5.688;2022-12-29T21:22:04;11.10;99.90
23813;DHT22;12087;45.190;5.688;2022-12-29T21:27:27;10.90;99.90
23813;DHT22;12087;45.190;5.688;2022-12-29T21:32:49;10.90;99.90
23813;DHT22;12087;45.190;5.688;2022-12-29T21:38:13;10.80;99.90
23813;DHT22;12087;45.190;5.688;2022-12-29T21:43:36;10.80;99.90
23813;DHT22;12087;45.190;5.688;2022-12-29T21:48:59;10.80;99.90
23813;DHT22;12087;45.190;5.688;2022-12-29T21:54:24;10.80;99.90
23813;DHT22;12087;45.190;5.688;2022-12-29T22:00:05;10.70;99.90
23813;DHT22;12087;45.190;5.688;2022-12-29T22:05:45;10.70;99.90
23813;DHT22;12087;45.190;5.688;2022-12-29T22:11:26;10.70;99.90
23813;DHT22;12087;45.190;5.688;2022-12-29T22:17:06;10.70;99.90
23813;DHT22;12087;45.190;5.688;2022-12-29T22:22:29;10.60;99.90
23813;DHT22;12087;45.190;5.688;2022-12-29T22:27:53;10.60;99.90
23813;DHT22;12087;45.190;5.688;2022-12-29T22:33:15;10.60;99.90
23813;DHT22;12087;45.190;5.688;2022-12-29T22:38:37;10.60;99.90
23813;DHT22;12087;45.190;5.688;2022-12-29T22:44:01;10.50;99.90
23813;DHT22;12087;45.190;5.688;2022-12-29T22:49:24;10.40;99.90
23813;DHT22;12087;45.190;5.688;2022-12-29T22:54:47;10.40;99.90
23813;DHT22;12087;45.190;5.688;2022-12-29T23:00:11;10.30;99.90
23813;DHT22;12087;45.190;5.688;2022-12-29T23:05:33;10.20;99.90
23813;DHT22;12087;45.190;5.688;2022-12-29T23:10:56;10.20;99.90
23813;DHT22;12087;45.190;5.688;2022-12-29T23:16:20;10.10;99.90
23813;DHT22;12087;45.190;5.688;2022-12-29T23:21:42;10.00;99.90
23813;DHT22;12087;45.190;5.688;2022-12-29T23:27:04;10.10;99.90
23813;DHT22;12087;45.190;5.688;2022-12-29T23:32:28;10.10;99.90
23813;DHT22;12087;45.190;5.688;2022-12-29T23:37:50;10.00;99.90
23813;DHT22;12087;45.190;5.688;2022-12-29T23:43:13;10.00;99.90
23813;DHT22;12087;45.190;5.688;2022-12-29T23:48:37;9.90;99.90
23813;DHT22;12087;45.190;5.688;2022-12-29T23:53:59;10.00;99.90
23813;DHT22;12087;45.190;5.688;2022-12-29T23:59:21;9.90;99.90
